• Join FlightAware (Why Join?)
  • Login
  • US Flag 
04:00PM EST


 

Airport Tracker/Info


-or-


 

Live Flight TrackerFlight Track Log ✈ UAL4550 ✈ 25-Apr-2013 ✈ KIAH - KMLU

Flight Track Log - Related Links

Times and Time Zones

All times are in EDT time to prevent confusion due to time zone crossing. See the UAL4550 flight status page for this flight to view local times or setup timezone preferences in your user account.

Time Position Orientation Groundspeed Altitude Reporting Facility
EDT Latitude Longitude Course Direction KTS MPH feet Rate Location/Type
08:19PM 29.9769 -95.3031 31° Northeast 169 194 600  Level Houston Center
08:20PM 30.0558 -95.2478 31° Northeast 255 293 2,500 1,140 Climbing Houston Center
08:21PM 30.0603 -95.2464 15° North 253 291 2,600 2,100 Climbing Houston Center
08:22PM 30.1275 -95.2050 28° Northeast 275 316 4,900 2,760 Climbing Houston Center
08:23PM 30.2019 -95.1514 32° Northeast 278 320 8,400 2,520 Climbing Houston Center
08:24PM 30.2697 -95.1031 32° Northeast 285 328 10,700 1,620 Climbing Houston Center
08:25PM 30.3492 -95.0461 32° Northeast 333 383 11,800 1,200 Climbing Houston Center
08:26PM 30.4414 -94.9778 33° Northeast 372 428 13,200 1,620 Climbing Houston Center
08:27PM 30.5286 -94.9111 33° Northeast 375 432 15,200 1,920 Climbing Houston Center
08:28PM 30.6131 -94.8456 34° Northeast 366 421 17,200 1,800 Climbing Houston Center
08:29PM 30.7153 -94.7675 33° Northeast 367 422 19,000 1,620 Climbing Houston Center
08:30PM 30.7861 -94.6744 48° Northeast 387 445 20,600 1,500 Climbing Houston Center
08:31PM 30.8547 -94.5725 52° Northeast 400 460 22,100 1,140 Climbing Houston Center
08:32PM 30.9250 -94.4678 52° Northeast 412 474 23,000 420 Climbing Houston Center
08:33PM 31.0003 -94.3558 52° Northeast 437 503 23,000  Level Houston Center
08:34PM 31.0964 -94.2122 52° Northeast 469 540 23,000  Level Houston Center
08:35PM 31.1767 -94.0931 52° Northeast 470 541 23,000  Level Houston Center
08:36PM 31.2575 -93.9731 52° Northeast 471 542 23,000  Level Houston Center
08:37PM 31.3367 -93.8539 52° Northeast 466 536 23,000  Level Houston Center
08:38PM 31.4153 -93.7347 52° Northeast 463 533 23,000  Level Houston Center
08:39PM 31.5075 -93.5939 52° Northeast 462 532 23,000  Level Houston Center
08:40PM 31.5833 -93.4778 53° Northeast 461 531 23,000  Level Houston Center
08:41PM 31.6625 -93.3589 52° Northeast 460 529 23,000  Level Houston Center
08:42PM 31.7400 -93.2406 52° Northeast 458 527 23,000  Level Houston Center
08:43PM 31.8175 -93.1203 53° Northeast 458 527 23,000 -900 Level Houston Center
08:45PM 31.8933 -93.0003 53° Northeast 456 525 21,200 -2,520 Descending Houston Center
08:46PM 31.9806 -92.8622 53° Northeast 442 509 17,900 -2,940 Descending Houston Center
08:47PM 32.0494 -92.7514 54° Northeast 427 491 15,200 -2,280 Descending Houston Center
08:48PM 32.1150 -92.6503 53° Northeast 400 460 13,300 -1,140 Descending Houston Center
08:49PM 32.1778 -92.5489 54° Northeast 387 445 12,900 -840 Descending Houston Center
08:50PM 32.2375 -92.4517 54° Northeast 377 434 11,700 -1,200 Descending Houston Center